createdAt,value
2023-05-20T00:01:11.041Z,17.23
2023-05-20T00:03:40.084Z,17.20
2023-05-20T00:06:10.848Z,17.04
2023-05-20T00:08:40.109Z,17.16
2023-05-20T00:11:09.109Z,17.12
2023-05-20T00:13:39.163Z,17.02
2023-05-20T00:16:08.453Z,17.22
2023-05-20T00:18:37.583Z,17.05
2023-05-20T00:21:06.671Z,16.91
2023-05-20T00:23:37.439Z,17.04
2023-05-20T00:26:06.542Z,17.16
2023-05-20T00:28:35.923Z,17.06
2023-05-20T00:31:05.109Z,16.94
2023-05-20T00:33:35.166Z,16.96
2023-05-20T00:36:04.408Z,16.98
2023-05-20T00:38:35.133Z,16.77
2023-05-20T00:41:05.562Z,17.02
2023-05-20T00:43:35.034Z,16.71
2023-05-20T00:46:04.574Z,16.94
2023-05-20T00:48:41.145Z,16.94
2023-05-20T00:51:10.572Z,16.83
2023-05-20T00:53:40.791Z,16.94
2023-05-20T00:56:11.713Z,16.76
2023-05-20T00:58:41.575Z,16.87
2023-05-20T01:01:11.015Z,16.93
2023-05-20T01:03:40.404Z,16.86
2023-05-20T01:06:09.429Z,16.76
2023-05-20T01:08:38.729Z,16.87
2023-05-20T01:11:16.158Z,16.81
2023-05-20T01:13:49.221Z,16.85
2023-05-20T01:16:20.137Z,16.86
2023-05-20T01:18:52.411Z,16.85
2023-05-20T01:21:22.225Z,16.74
2023-05-20T01:23:52.936Z,16.64
2023-05-20T01:26:22.205Z,16.64
2023-05-20T01:28:51.496Z,16.63
2023-05-20T01:31:25.038Z,16.68
2023-05-20T01:33:58.501Z,16.63
2023-05-20T01:36:29.921Z,16.62
2023-05-20T01:39:02.360Z,16.46
2023-05-20T01:41:34.545Z,16.40
2023-05-20T01:44:03.847Z,16.33
2023-05-20T01:46:34.659Z,16.30
2023-05-20T01:49:05.078Z,16.37
2023-05-20T01:51:35.404Z,16.41
2023-05-20T01:54:06.851Z,16.26
2023-05-20T01:56:36.256Z,16.20
2023-05-20T01:59:05.298Z,16.30
2023-05-20T02:01:34.402Z,16.10
2023-05-20T02:04:03.339Z,16.26
2023-05-20T02:06:32.639Z,16.25
2023-05-20T02:09:01.720Z,16.24
2023-05-20T02:11:33.240Z,16.29
2023-05-20T02:14:02.255Z,16.02
2023-05-20T02:16:31.473Z,16.20
2023-05-20T02:19:02.316Z,16.19
2023-05-20T02:21:31.808Z,16.12
2023-05-20T02:24:00.782Z,16.12
2023-05-20T02:26:31.559Z,16.01
2023-05-20T02:29:01.011Z,15.87
2023-05-20T02:31:29.940Z,16.04
2023-05-20T02:33:59.046Z,16.08
2023-05-20T02:36:28.873Z,15.90
2023-05-20T02:38:58.235Z,16.10
2023-05-20T02:41:27.303Z,16.21
2023-05-20T02:44:09.890Z,16.14
2023-05-20T02:46:41.882Z,16.24
2023-05-20T02:49:14.616Z,16.20
2023-05-20T02:51:47.012Z,16.03
2023-05-20T02:54:17.417Z,15.82
2023-05-20T02:56:46.853Z,16.16
2023-05-20T02:59:17.746Z,16.11
2023-05-20T03:01:46.925Z,15.33
2023-05-20T03:04:16.182Z,16.29
2023-05-20T03:06:46.625Z,16.13
2023-05-20T03:09:21.370Z,16.24
2023-05-20T03:11:50.499Z,16.48
2023-05-20T03:14:20.765Z,16.28
2023-05-20T03:16:49.839Z,16.31
2023-05-20T03:19:18.962Z,16.30
2023-05-20T03:21:47.978Z,16.51
2023-05-20T03:24:18.509Z,16.62
2023-05-20T03:26:49.403Z,16.61
2023-05-20T03:29:19.365Z,16.41
2023-05-20T03:31:50.345Z,16.54
2023-05-20T03:34:19.374Z,16.55
2023-05-20T03:36:50.106Z,16.66
2023-05-20T03:39:19.599Z,16.90
2023-05-20T03:41:48.601Z,16.71
2023-05-20T03:44:19.769Z,16.77
2023-05-20T03:46:51.507Z,16.57
2023-05-20T03:49:20.926Z,16.81
2023-05-20T03:51:49.905Z,16.88
2023-05-20T03:54:19.301Z,16.70
2023-05-20T03:56:57.813Z,16.76
2023-05-20T03:59:30.567Z,16.81
2023-05-20T04:02:01.662Z,16.77
2023-05-20T04:04:31.027Z,16.07
2023-05-20T04:07:00.923Z,16.54
2023-05-20T04:09:30.202Z,16.75
2023-05-20T04:11:59.322Z,16.85
2023-05-20T04:14:28.564Z,17.15
2023-05-20T04:16:57.652Z,17.11
2023-05-20T04:19:28.673Z,16.85
2023-05-20T04:21:58.477Z,17.21
2023-05-20T04:24:28.001Z,17.05
2023-05-20T04:26:57.621Z,17.11
2023-05-20T04:29:26.829Z,17.33
2023-05-20T04:31:59.073Z,17.30
2023-05-20T04:34:35.276Z,17.51
2023-05-20T04:37:04.447Z,17.33
2023-05-20T04:39:33.429Z,17.08
2023-05-20T04:42:03.007Z,16.89
2023-05-20T04:44:32.885Z,17.32
2023-05-20T04:47:02.530Z,17.47
2023-05-20T04:49:32.956Z,17.37
2023-05-20T04:52:02.843Z,17.30
2023-05-20T04:54:32.864Z,17.58
2023-05-20T04:57:03.000Z,17.74
2023-05-20T04:59:32.038Z,17.37
2023-05-20T05:02:01.793Z,17.78
2023-05-20T05:04:32.439Z,17.73
2023-05-20T05:07:01.370Z,17.81
2023-05-20T05:09:31.783Z,17.70
2023-05-20T05:12:02.799Z,17.37
2023-05-20T05:14:31.901Z,17.08
2023-05-20T05:17:01.511Z,17.03
2023-05-20T05:19:32.650Z,17.29
2023-05-20T05:22:01.747Z,17.47
2023-05-20T05:24:32.607Z,17.73
2023-05-20T05:27:02.961Z,17.38
2023-05-20T05:29:33.952Z,18.01
2023-05-20T05:32:03.588Z,17.77
2023-05-20T05:34:34.209Z,17.96
2023-05-20T05:37:03.433Z,18.13
2023-05-20T05:39:33.185Z,18.03
2023-05-20T05:42:10.979Z,17.59
2023-05-20T05:44:41.220Z,17.66
2023-05-20T05:47:13.394Z,17.92
2023-05-20T05:49:46.527Z,18.06
2023-05-20T05:52:15.669Z,18.28
2023-05-20T05:54:45.304Z,18.54
2023-05-20T05:57:16.887Z,18.98
2023-05-20T05:59:46.440Z,18.84
2023-05-20T06:02:15.900Z,18.93
2023-05-20T06:04:49.556Z,18.81
2023-05-20T06:07:19.603Z,18.87
2023-05-20T06:09:49.252Z,18.95
2023-05-20T06:12:19.057Z,18.74
2023-05-20T06:14:48.485Z,18.82
2023-05-20T06:17:17.495Z,18.98
2023-05-20T06:19:48.321Z,18.77
2023-05-20T06:22:19.987Z,19.26
2023-05-20T06:24:50.327Z,18.85
2023-05-20T06:27:20.512Z,19.47
2023-05-20T06:29:49.398Z,19.61
2023-05-20T06:32:18.980Z,20.00
2023-05-20T06:34:52.067Z,20.18
2023-05-20T06:37:24.513Z,19.81
2023-05-20T06:39:55.233Z,19.76
2023-05-20T06:42:24.981Z,19.63
2023-05-20T06:45:06.569Z,20.08
2023-05-20T06:48:05.230Z,20.38
2023-05-20T06:50:35.847Z,20.30
2023-05-20T06:53:05.532Z,20.12
2023-05-20T06:55:34.998Z,20.46
2023-05-20T06:58:04.750Z,20.03
2023-05-20T07:00:35.707Z,19.99
2023-05-20T07:03:05.132Z,19.79
2023-05-20T07:05:36.554Z,20.41
2023-05-20T07:08:06.653Z,20.25
2023-05-20T07:10:36.059Z,20.64
2023-05-20T07:13:06.053Z,20.12
2023-05-20T07:15:35.460Z,20.05
2023-05-20T07:18:05.143Z,20.59
2023-05-20T07:20:37.896Z,20.60
2023-05-20T07:23:15.565Z,20.54
2023-05-20T07:26:00.485Z,20.97
2023-05-20T07:28:46.005Z,20.67
2023-05-20T07:31:27.171Z,21.10
2023-05-20T07:33:56.238Z,20.69
2023-05-20T07:36:28.311Z,21.01
2023-05-20T07:39:03.875Z,20.76
2023-05-20T07:41:38.560Z,20.86
2023-05-20T07:44:08.788Z,21.01
2023-05-20T07:46:42.044Z,21.05
2023-05-20T07:49:12.875Z,21.34
2023-05-20T07:51:44.522Z,21.30
2023-05-20T07:54:15.401Z,21.37
2023-05-20T07:56:47.930Z,21.23
2023-05-20T07:59:17.107Z,20.93
2023-05-20T08:01:48.921Z,21.15
2023-05-20T08:04:20.816Z,21.13
2023-05-20T08:06:51.248Z,21.46
2023-05-20T08:09:33.106Z,21.35
2023-05-20T08:12:05.055Z,21.48
2023-05-20T08:14:37.498Z,21.31
2023-05-20T08:17:07.130Z,21.23
2023-05-20T08:19:36.517Z,21.34
2023-05-20T08:22:07.548Z,22.05
2023-05-20T08:24:36.575Z,21.90
2023-05-20T08:27:06.497Z,21.88
2023-05-20T08:29:36.283Z,21.97
2023-05-20T08:32:07.089Z,22.63
2023-05-20T08:34:37.907Z,22.12
2023-05-20T08:37:08.267Z,22.49
2023-05-20T08:39:37.399Z,22.32
2023-05-20T08:42:09.445Z,22.62
2023-05-20T08:44:38.739Z,22.33
2023-05-20T08:47:08.916Z,22.92
2023-05-20T08:49:42.301Z,22.81
2023-05-20T08:52:14.505Z,23.29
2023-05-20T08:54:46.748Z,23.15
2023-05-20T08:57:16.249Z,23.08
2023-05-20T08:59:47.166Z,22.72
2023-05-20T09:02:16.789Z,22.87
2023-05-20T09:04:45.801Z,23.05
2023-05-20T09:07:16.220Z,23.88
2023-05-20T09:09:45.321Z,23.13
2023-05-20T09:12:15.004Z,23.32
2023-05-20T09:14:45.226Z,23.22
2023-05-20T09:17:28.811Z,23.34
2023-05-20T09:19:58.700Z,23.67
2023-05-20T09:22:30.519Z,24.18
2023-05-20T09:24:59.984Z,24.03
2023-05-20T09:27:29.208Z,23.17
2023-05-20T09:29:58.377Z,24.12
2023-05-20T09:32:29.092Z,24.38
2023-05-20T09:35:01.558Z,23.56
2023-05-20T09:37:32.706Z,24.14
2023-05-20T09:40:10.867Z,24.59
2023-05-20T09:42:44.407Z,24.32
2023-05-20T09:45:20.539Z,24.30
2023-05-20T09:47:52.333Z,25.08
2023-05-20T09:50:28.764Z,24.48
2023-05-20T09:53:04.111Z,24.40
2023-05-20T09:55:34.598Z,24.44
2023-05-20T09:58:04.497Z,24.78
2023-05-20T10:00:34.698Z,24.75
2023-05-20T10:03:03.787Z,25.05
2023-05-20T10:05:39.164Z,25.59
2023-05-20T10:08:35.604Z,25.85
2023-05-20T10:11:14.856Z,25.81
2023-05-20T10:14:07.377Z,26.34
2023-05-20T10:16:49.472Z,28.64
2023-05-20T10:19:32.001Z,28.31
2023-05-20T10:22:05.855Z,28.32
2023-05-20T10:24:40.355Z,27.69
2023-05-20T10:27:11.229Z,27.80
2023-05-20T10:32:33.424Z,28.33
2023-05-20T10:35:05.442Z,30.16
2023-05-20T10:37:42.061Z,29.20
2023-05-20T10:40:16.005Z,27.51
2023-05-20T10:42:46.281Z,29.42
2023-05-20T10:45:27.658Z,32.20
2023-05-20T10:47:58.003Z,33.25
2023-05-20T10:50:35.753Z,33.10
2023-05-20T10:53:08.141Z,32.42
2023-05-20T10:55:42.598Z,32.20
2023-05-20T10:58:12.006Z,31.83
2023-05-20T11:00:41.593Z,32.62
2023-05-20T11:03:13.266Z,32.62
2023-05-20T11:05:42.852Z,33.77
2023-05-20T11:08:27.151Z,33.57
2023-05-20T11:10:59.678Z,34.59
2023-05-20T11:13:29.726Z,34.22
2023-05-20T11:15:59.297Z,34.54
2023-05-20T11:18:30.526Z,36.30
2023-05-20T11:20:59.875Z,35.37
2023-05-20T11:23:33.091Z,36.28
2023-05-20T11:26:03.734Z,35.22
2023-05-20T11:28:33.415Z,37.75
2023-05-20T11:31:09.054Z,37.14
2023-05-20T11:33:45.379Z,36.65
2023-05-20T11:36:27.013Z,37.86
2023-05-20T11:38:59.402Z,36.77
2023-05-20T11:41:32.037Z,38.17
2023-05-20T11:44:01.535Z,37.98
2023-05-20T11:46:30.537Z,35.22
2023-05-20T11:49:02.586Z,35.53
2023-05-20T11:51:31.828Z,37.99
2023-05-20T11:54:02.486Z,37.71
2023-05-20T11:56:37.670Z,36.84
2023-05-20T11:59:07.150Z,37.94
2023-05-20T12:01:41.872Z,37.95
2023-05-20T12:04:12.103Z,37.84
2023-05-20T12:06:43.175Z,37.12
2023-05-20T12:09:14.356Z,38.67
2023-05-20T12:11:45.457Z,37.68
2023-05-20T12:14:14.482Z,37.74
2023-05-20T12:16:47.773Z,38.23
2023-05-20T12:19:17.161Z,36.76
2023-05-20T12:21:49.736Z,37.54
2023-05-20T12:24:19.014Z,37.40
2023-05-20T12:26:49.407Z,35.75
2023-05-20T12:29:18.367Z,35.55
2023-05-20T12:31:47.288Z,36.67
2023-05-20T12:34:16.832Z,37.19
2023-05-20T12:36:46.530Z,36.38
2023-05-20T12:39:18.884Z,39.26
2023-05-20T12:41:49.348Z,40.20
2023-05-20T12:44:18.364Z,37.93
2023-05-20T12:46:48.791Z,39.55
2023-05-20T12:49:17.836Z,40.13
2023-05-20T12:51:47.096Z,39.02
2023-05-20T12:54:16.112Z,38.69
2023-05-20T12:56:49.406Z,38.54
2023-05-20T12:59:18.537Z,38.99
2023-05-20T13:01:47.923Z,40.83
2023-05-20T13:04:17.063Z,39.32
2023-05-20T13:06:46.065Z,40.14
2023-05-20T13:09:15.473Z,40.20
2023-05-20T13:11:46.057Z,39.81
2023-05-20T13:14:17.510Z,39.98
2023-05-20T13:16:47.053Z,39.77
2023-05-20T13:19:16.619Z,38.95
2023-05-20T13:21:46.120Z,38.71
2023-05-20T13:24:15.929Z,37.51
2023-05-20T13:26:45.729Z,38.03
2023-05-20T13:29:16.278Z,39.23
2023-05-20T13:31:45.552Z,38.89
2023-05-20T13:34:15.076Z,39.27
2023-05-20T13:36:44.355Z,39.12
2023-05-20T13:39:49.573Z,39.19
2023-05-20T13:43:33.128Z,38.40
2023-05-20T13:46:04.445Z,36.78
2023-05-20T13:48:33.578Z,39.00
2023-05-20T13:51:02.947Z,37.23
2023-05-20T13:53:32.030Z,39.87
2023-05-20T13:56:01.687Z,39.79
2023-05-20T13:58:30.605Z,41.13
2023-05-20T14:01:00.935Z,38.73
2023-05-20T14:03:31.579Z,38.55
2023-05-20T14:06:01.116Z,37.86
2023-05-20T14:08:30.392Z,39.25
2023-05-20T14:10:59.693Z,37.23
2023-05-20T14:13:29.053Z,38.76
2023-05-20T14:15:59.616Z,39.73
2023-05-20T14:18:28.671Z,38.88
2023-05-20T14:20:59.027Z,38.35
2023-05-20T14:23:28.159Z,37.90
2023-05-20T14:25:57.032Z,38.05
2023-05-20T14:28:26.016Z,37.40
2023-05-20T14:30:55.050Z,37.23
2023-05-20T14:33:24.254Z,37.57
2023-05-20T14:35:53.520Z,38.44
2023-05-20T14:38:24.025Z,39.12
2023-05-20T14:40:53.140Z,40.05
2023-05-20T14:43:22.169Z,37.90
2023-05-20T14:45:51.233Z,35.21
2023-05-20T14:48:20.159Z,36.33
2023-05-20T14:50:49.835Z,35.75
2023-05-20T14:53:19.466Z,35.62
2023-05-20T14:55:50.177Z,37.79
2023-05-20T14:58:20.955Z,37.57
2023-05-20T15:00:50.192Z,37.03
2023-05-20T15:03:19.504Z,38.47
2023-05-20T15:05:48.491Z,37.57
2023-05-20T15:08:17.498Z,36.17
2023-05-20T15:10:46.683Z,37.92
2023-05-20T15:13:17.059Z,37.45
2023-05-20T15:15:52.074Z,37.24
2023-05-20T15:18:24.090Z,36.21
2023-05-20T15:20:56.618Z,36.35
2023-05-20T15:23:34.035Z,37.45
2023-05-20T15:26:03.435Z,36.60
2023-05-20T15:28:34.146Z,35.63
2023-05-20T15:31:03.442Z,35.17
2023-05-20T15:33:33.120Z,33.35
2023-05-20T15:36:02.527Z,31.58
2023-05-20T15:38:31.508Z,28.53
2023-05-20T15:41:01.051Z,28.21
2023-05-20T15:43:30.039Z,27.59
2023-05-20T15:46:02.737Z,26.83
2023-05-20T15:48:33.919Z,26.49
2023-05-20T15:51:03.142Z,26.54
2023-05-20T15:53:32.777Z,26.26
2023-05-20T15:56:02.176Z,25.90
2023-05-20T15:58:31.937Z,25.80
2023-05-20T16:01:02.513Z,25.37
2023-05-20T16:03:32.200Z,25.21
2023-05-20T16:06:01.532Z,25.01
2023-05-20T16:08:31.560Z,24.68
2023-05-20T16:11:01.026Z,24.76
2023-05-20T16:13:30.151Z,24.60
2023-05-20T16:15:59.428Z,24.33
2023-05-20T16:18:30.096Z,24.74
2023-05-20T16:21:00.477Z,24.59
2023-05-20T16:23:29.912Z,24.29
2023-05-20T16:25:59.217Z,24.37
2023-05-20T16:28:28.443Z,23.88
2023-05-20T16:30:58.280Z,23.88
2023-05-20T16:33:27.476Z,23.96
2023-05-20T16:35:58.106Z,24.00
2023-05-20T16:38:27.216Z,23.71
2023-05-20T16:40:56.506Z,23.32
2023-05-20T16:43:25.734Z,23.37
2023-05-20T16:45:55.094Z,23.14
2023-05-20T16:48:24.295Z,23.03
2023-05-20T16:50:53.552Z,23.04
2023-05-20T16:53:23.967Z,22.89
2023-05-20T16:55:53.162Z,22.91
2023-05-20T16:58:22.310Z,22.79
2023-05-20T17:00:51.583Z,22.69
2023-05-20T17:03:21.172Z,22.44
2023-05-20T17:05:50.164Z,22.56
2023-05-20T17:08:19.384Z,22.26
2023-05-20T17:10:52.409Z,22.36
2023-05-20T17:14:15.014Z,22.18
2023-05-20T17:17:05.642Z,21.37
2023-05-20T17:19:34.861Z,21.98
2023-05-20T17:22:06.459Z,22.07
2023-05-20T17:24:35.978Z,21.92
2023-05-20T17:27:07.024Z,21.98
2023-05-20T17:29:36.489Z,21.81
2023-05-20T17:32:14.258Z,21.75
2023-05-20T17:34:43.316Z,21.61
2023-05-20T17:37:12.523Z,21.66
2023-05-20T17:39:43.285Z,21.58
2023-05-20T17:42:13.935Z,21.53
2023-05-20T17:44:42.966Z,21.36
2023-05-20T17:47:12.050Z,21.33
2023-05-20T17:49:41.458Z,21.16
2023-05-20T17:52:10.670Z,20.99
2023-05-20T17:54:39.705Z,21.11
2023-05-20T17:57:08.631Z,20.96
2023-05-20T17:59:42.009Z,20.96
2023-05-20T18:02:11.691Z,20.84
2023-05-20T18:04:41.649Z,20.73
2023-05-20T18:07:17.943Z,20.65
2023-05-20T18:09:47.142Z,20.56
2023-05-20T18:12:16.317Z,20.49
2023-05-20T18:14:46.838Z,20.47
2023-05-20T18:17:16.097Z,20.31
2023-05-20T18:19:45.323Z,20.37
2023-05-20T18:22:17.995Z,20.32
2023-05-20T18:24:56.781Z,20.30
2023-05-20T18:27:26.554Z,20.39
2023-05-20T18:29:57.584Z,20.18
2023-05-20T18:32:28.681Z,20.31
2023-05-20T18:34:58.364Z,20.10
2023-05-20T18:37:29.684Z,20.07
2023-05-20T18:39:59.202Z,19.93
2023-05-20T18:42:28.455Z,19.74
2023-05-20T18:44:59.922Z,19.69
2023-05-20T18:47:29.082Z,19.65
2023-05-20T18:49:58.540Z,19.64
2023-05-20T18:52:28.109Z,19.75
2023-05-20T18:54:57.730Z,19.65
2023-05-20T18:57:27.344Z,19.61
2023-05-20T18:59:56.499Z,19.48
2023-05-20T19:02:27.057Z,19.57
2023-05-20T19:04:56.271Z,19.31
2023-05-20T19:07:25.651Z,19.33
2023-05-20T19:09:54.886Z,19.31
2023-05-20T19:12:24.406Z,19.33
2023-05-20T19:14:54.234Z,19.31
2023-05-20T19:17:23.540Z,19.15
2023-05-20T19:19:54.180Z,18.94
2023-05-20T19:22:27.094Z,18.97
2023-05-20T19:24:56.973Z,18.97
2023-05-20T19:27:26.588Z,18.94
2023-05-20T19:29:55.891Z,18.94
2023-05-20T19:32:26.776Z,18.86
2023-05-20T19:34:57.340Z,18.77
2023-05-20T19:37:26.418Z,18.59
2023-05-20T19:39:56.133Z,18.73
2023-05-20T19:42:25.298Z,18.62
2023-05-20T19:44:55.222Z,18.49
2023-05-20T19:47:24.465Z,18.38
2023-05-20T19:49:53.691Z,18.48
2023-05-20T19:52:24.427Z,18.44
2023-05-20T19:54:53.735Z,18.32
2023-05-20T19:57:23.096Z,18.30
2023-05-20T19:59:53.544Z,18.31
2023-05-20T20:02:23.170Z,18.07
2023-05-20T20:04:52.621Z,17.99
2023-05-20T20:07:23.961Z,18.17
2023-05-20T20:09:55.512Z,18.04
2023-05-20T20:12:27.726Z,18.17
2023-05-20T20:15:01.577Z,18.08
2023-05-20T20:17:30.915Z,17.96
2023-05-20T20:19:59.872Z,17.85
2023-05-20T20:22:30.242Z,17.85
2023-05-20T20:24:59.389Z,17.93
2023-05-20T20:27:28.464Z,17.77
2023-05-20T20:29:57.624Z,17.67
2023-05-20T20:32:26.697Z,17.87
2023-05-20T20:34:55.770Z,17.67
2023-05-20T20:37:26.924Z,17.87
2023-05-20T20:39:57.307Z,17.81
2023-05-20T20:42:26.566Z,17.79
2023-05-20T20:44:55.949Z,17.70
2023-05-20T20:47:29.261Z,17.74
2023-05-20T20:49:58.605Z,17.60
2023-05-20T20:52:34.972Z,17.52
2023-05-20T20:55:05.913Z,17.59
2023-05-20T20:57:35.700Z,17.37
2023-05-20T21:00:13.055Z,17.32
2023-05-20T21:02:42.153Z,17.32
2023-05-20T21:05:11.689Z,17.13
2023-05-20T21:07:42.839Z,17.09
2023-05-20T21:10:14.225Z,17.12
2023-05-20T21:12:43.371Z,17.09
2023-05-20T21:15:15.033Z,17.04
2023-05-20T21:17:44.374Z,16.96
2023-05-20T21:20:15.325Z,16.79
2023-05-20T21:22:44.808Z,16.81
2023-05-20T21:25:15.352Z,16.89
2023-05-20T21:27:44.594Z,16.69
2023-05-20T21:30:15.934Z,16.75
2023-05-20T21:32:45.263Z,16.66
2023-05-20T21:35:14.177Z,16.82
2023-05-20T21:37:43.123Z,16.57
2023-05-20T21:40:12.935Z,16.50
2023-05-20T21:42:43.263Z,16.44
2023-05-20T21:45:13.961Z,16.43
2023-05-20T21:47:43.137Z,16.42
2023-05-20T21:50:15.183Z,16.22
2023-05-20T21:52:47.332Z,16.42
2023-05-20T21:55:17.348Z,15.29
2023-05-20T21:57:47.882Z,16.20
2023-05-20T22:00:18.999Z,16.17
2023-05-20T22:02:48.242Z,15.70
2023-05-20T22:05:18.083Z,16.01
2023-05-20T22:07:47.755Z,15.87
2023-05-20T22:10:17.675Z,15.80
2023-05-20T22:12:50.977Z,15.52
2023-05-20T22:15:20.186Z,15.70
2023-05-20T22:17:49.384Z,15.68
2023-05-20T22:20:18.595Z,15.43
2023-05-20T22:22:47.644Z,15.51
2023-05-20T22:25:17.478Z,15.40
2023-05-20T22:27:48.371Z,15.38
2023-05-20T22:30:17.510Z,15.29
2023-05-20T22:32:46.702Z,15.35
2023-05-20T22:35:15.880Z,15.40
2023-05-20T22:37:44.940Z,15.40
2023-05-20T22:40:14.369Z,15.17
2023-05-20T22:42:43.647Z,15.11
2023-05-20T22:45:14.287Z,15.20
2023-05-20T22:47:43.330Z,15.06
2023-05-20T22:50:13.675Z,14.77
2023-05-20T22:52:43.050Z,15.07
2023-05-20T22:55:12.768Z,15.15
2023-05-20T22:57:42.116Z,14.74
2023-05-20T23:00:15.527Z,15.02
2023-05-20T23:02:45.898Z,14.83
2023-05-20T23:05:15.155Z,14.86
2023-05-20T23:07:44.808Z,14.72
2023-05-20T23:10:13.738Z,14.80
2023-05-20T23:12:42.817Z,14.59
2023-05-20T23:15:13.940Z,14.69
2023-05-20T23:17:43.575Z,14.79
2023-05-20T23:20:14.557Z,14.73
2023-05-20T23:22:43.621Z,14.74
2023-05-20T23:25:12.751Z,14.70
2023-05-20T23:27:41.958Z,14.69
2023-05-20T23:30:11.714Z,14.57
2023-05-20T23:32:42.656Z,14.66
2023-05-20T23:35:13.358Z,14.58
2023-05-20T23:37:42.468Z,14.55
2023-05-20T23:40:11.857Z,14.14
2023-05-20T23:42:41.225Z,14.45
2023-05-20T23:45:11.830Z,14.45
2023-05-20T23:47:42.323Z,14.40
2023-05-20T23:50:13.303Z,14.46
2023-05-20T23:52:42.461Z,14.27
2023-05-20T23:55:14.299Z,14.27
2023-05-20T23:57:43.314Z,14.08
